Time;durP1;ratioP1;P1;durP2;ratioP2;P2;SDS_P1;SDS_P2;PMS_P1;PMS_P2;Temp;Humidity;BMP_temperature;BMP_pressure;BME280_temperature;BME280_humidity;BME280_pressure;Samples;Min_cycle;Max_cycle;Signal;HPM_P1;HPM_P2
2022/12/26 00:01:41;;;;;;;33.37;7.57;;;6.40;99.90;;;;;;5023018;28;20252;-81
2022/12/26 00:04:08;;;;;;;60.73;9.17;;;6.40;99.90;;;;;;5018678;28;20752;-81
2022/12/26 00:06:35;;;;;;;46.37;9.20;;;6.40;99.90;;;;;;5016444;28;20885;-80
2022/12/26 00:09:05;;;;;;;42.03;8.10;;;6.40;99.90;;;;;;5024861;28;20760;-79
2022/12/26 00:11:33;;;;;;;27.67;8.07;;;6.40;99.90;;;;;;5025668;28;20268;-79
2022/12/26 00:14:02;;;;;;;98.70;11.90;;;6.40;99.90;;;;;;5019580;28;20245;-79
2022/12/26 00:16:29;;;;;;;26.57;7.67;;;6.40;99.90;;;;;;5021484;28;20731;-80
2022/12/26 00:18:56;;;;;;;29.17;7.70;;;6.40;99.90;;;;;;5024719;28;20279;-80
2022/12/26 00:21:25;;;;;;;17.90;7.40;;;6.50;99.90;;;;;;5027138;28;20227;-80
2022/12/26 00:23:53;;;;;;;22.07;8.23;;;6.40;99.90;;;;;;5019177;28;20264;-80
2022/12/26 00:26:23;;;;;;;37.67;8.13;;;6.40;99.90;;;;;;5024057;28;20227;-81
2022/12/26 00:28:53;;;;;;;295.50;24.67;;;6.50;99.90;;;;;;5021711;28;20833;-81
2022/12/26 00:31:21;;;;;;;31.87;8.27;;;6.50;99.90;;;;;;5022603;28;20229;-81
2022/12/26 00:33:49;;;;;;;26.87;7.17;;;6.50;99.90;;;;;;5026171;28;20239;-82
2022/12/26 00:36:20;;;;;;;19.10;7.97;;;6.50;99.90;;;;;;5027867;28;20606;-81
2022/12/26 00:38:47;;;;;;;43.20;8.23;;;6.50;99.90;;;;;;5022052;28;20221;-81
2022/12/26 00:41:16;;;;;;;31.73;6.90;;;6.50;99.90;;;;;;5031761;28;20221;-81
2022/12/26 00:43:43;;;;;;;214.63;20.17;;;6.40;99.90;;;;;;5039617;28;20235;-81
2022/12/26 00:46:11;;;;;;;64.10;9.73;;;6.40;99.90;;;;;;5029555;28;20227;-81
2022/12/26 00:48:38;;;;;;;29.60;7.67;;;6.40;99.90;;;;;;5043874;28;20865;-81
2022/12/26 00:51:05;;;;;;;37.23;8.67;;;6.40;99.90;;;;;;5026671;28;20795;-80
2022/12/26 00:53:32;;;;;;;35.13;7.73;;;6.40;99.90;;;;;;5029432;28;20227;-81
2022/12/26 00:56:02;;;;;;;22.57;7.23;;;6.40;99.90;;;;;;5023800;28;20846;-81
2022/12/26 00:58:28;;;;;;;47.30;9.10;;;6.30;99.90;;;;;;5026707;28;20245;-81
2022/12/26 01:00:56;;;;;;;34.57;9.00;;;6.30;99.90;;;;;;5025507;28;20221;-81
2022/12/26 01:03:24;;;;;;;56.03;9.77;;;6.30;99.90;;;;;;5033208;28;20792;-81
2022/12/26 01:05:52;;;;;;;117.73;13.57;;;6.40;99.90;;;;;;5019392;28;20222;-81
2022/12/26 01:08:19;;;;;;;84.97;12.33;;;6.30;99.90;;;;;;5024249;28;20232;-81
2022/12/26 01:10:47;;;;;;;96.23;12.83;;;6.30;99.90;;;;;;5026308;28;20226;-80
2022/12/26 01:13:14;;;;;;;168.17;17.20;;;6.30;99.90;;;;;;5026078;28;20233;-80
2022/12/26 01:15:48;;;;;;;157.27;18.10;;;6.30;99.90;;;;;;5018194;28;20587;-81
2022/12/26 01:18:15;;;;;;;115.20;14.60;;;6.40;99.90;;;;;;5020729;28;20588;-81
2022/12/26 01:20:43;;;;;;;156.93;17.23;;;6.40;99.90;;;;;;5025004;28;20223;-79
2022/12/26 01:23:10;;;;;;;109.87;14.17;;;6.40;99.90;;;;;;5026370;28;20745;-79
2022/12/26 01:25:37;;;;;;;70.80;12.33;;;6.40;99.90;;;;;;5030413;28;20231;-79
2022/12/26 01:28:04;;;;;;;102.63;14.07;;;6.40;99.90;;;;;;5027777;28;20219;-79
2022/12/26 01:30:30;;;;;;;40.67;10.63;;;6.50;99.90;;;;;;5026895;28;20252;-80
2022/12/26 01:32:58;;;;;;;71.63;12.70;;;6.50;99.90;;;;;;5026614;28;20230;-80
2022/12/26 01:35:24;;;;;;;91.03;12.43;;;6.50;99.90;;;;;;5018018;28;20246;-80
2022/12/26 01:37:52;;;;;;;65.93;12.13;;;6.50;99.90;;;;;;5019183;28;20231;-80
2022/12/26 01:40:19;;;;;;;71.47;11.73;;;6.50;99.90;;;;;;5022008;28;20545;-80
2022/12/26 01:42:46;;;;;;;45.10;10.43;;;6.50;99.90;;;;;;5024468;28;21019;-80
2022/12/26 01:45:25;;;;;;;163.77;17.67;;;6.60;99.90;;;;;;5021116;28;20226;-80
2022/12/26 01:47:57;;;;;;;71.53;12.00;;;6.60;99.90;;;;;;5038558;28;20229;-80
2022/12/26 01:50:29;;;;;;;49.27;10.10;;;6.60;99.90;;;;;;5025581;28;20256;-80
2022/12/26 01:53:02;;;;;;;115.37;12.90;;;6.60;99.90;;;;;;5021726;28;20241;-80
2022/12/26 01:55:31;;;;;;;87.30;11.70;;;6.60;99.90;;;;;;5017124;28;20232;-81
2022/12/26 01:58:02;;;;;;;55.77;10.10;;;6.60;99.90;;;;;;5022816;28;20753;-81
2022/12/26 02:00:29;;;;;;;22.07;7.37;;;6.60;99.90;;;;;;5018895;28;20224;-80
2022/12/26 02:05:43;;;;;;;28.80;6.70;;;6.70;99.90;;;;;;5022269;28;20230;-80
2022/12/26 02:08:14;;;;;;;35.23;7.27;;;6.60;99.90;;;;;;5022112;28;20225;-80
2022/12/26 02:10:48;;;;;;;51.30;8.43;;;6.60;99.90;;;;;;5027588;28;20583;-79
2022/12/26 02:13:16;;;;;;;116.33;11.53;;;6.70;99.90;;;;;;5016285;28;20230;-80
2022/12/26 02:15:43;;;;;;;88.70;10.63;;;6.70;99.90;;;;;;5013765;28;20426;-80
2022/12/26 02:18:10;;;;;;;39.87;8.10;;;6.70;99.90;;;;;;5020425;28;20254;-79
2022/12/26 02:20:46;;;;;;;172.77;15.50;;;6.70;99.90;;;;;;5041378;28;20232;-80
2022/12/26 02:23:57;;;;;;;36.47;6.80;;;6.70;99.90;;;;;;5021841;28;20752;-79
2022/12/26 02:26:48;;;;;;;16.10;5.30;;;6.70;99.90;;;;;;5021275;28;20206;-79
2022/12/26 02:29:38;;;;;;;27.47;5.93;;;6.80;99.90;;;;;;5025568;28;20236;-78
2022/12/26 02:32:15;;;;;;;74.90;8.83;;;6.70;99.90;;;;;;5038244;28;20234;-79
2022/12/26 02:34:55;;;;;;;151.13;13.43;;;6.70;99.90;;;;;;5024655;28;20249;-79
2022/12/26 02:37:40;;;;;;;56.37;7.03;;;6.70;99.90;;;;;;5019283;28;20278;-79
2022/12/26 02:40:25;;;;;;;200.33;16.70;;;6.80;99.90;;;;;;5023248;28;20216;-79
2022/12/26 02:42:59;;;;;;;91.83;9.53;;;6.80;99.90;;;;;;5026904;28;20232;-79
2022/12/26 02:48:26;;;;;;;84.40;9.43;;;6.80;99.90;;;;;;5016636;28;20319;-79
2022/12/26 03:13:50;;;;;;;71.70;10.27;;;6.80;99.90;;;;;;5014700;28;20241;-80
2022/12/26 03:19:08;;;;;;;51.53;9.83;;;6.80;99.90;;;;;;5024570;28;20241;-79
2022/12/26 03:21:40;;;;;;;100.47;12.13;;;6.90;99.90;;;;;;5023867;28;20221;-79
2022/12/26 03:24:09;;;;;;;23.50;8.30;;;6.90;99.90;;;;;;5019638;28;20225;-79
2022/12/26 03:26:39;;;;;;;34.50;9.13;;;6.90;99.90;;;;;;5025532;28;21118;-79
2022/12/26 03:31:53;;;;;;;130.53;15.53;;;6.90;99.90;;;;;;5029070;28;20221;-79
2022/12/26 03:34:20;;;;;;;69.03;10.07;;;6.90;99.90;;;;;;5019375;28;20576;-79
2022/12/26 03:36:57;;;;;;;53.57;10.03;;;6.90;99.90;;;;;;5025006;28;20223;-79
2022/12/26 04:19:49;;;;;;;26.70;8.43;;;6.90;99.90;;;;;;5047145;28;20226;-79
2022/12/26 04:44:54;;;;;;;72.50;10.80;;;6.80;99.90;;;;;;5043254;28;20225;-78
2022/12/26 04:47:21;;;;;;;58.03;10.03;;;6.80;99.90;;;;;;5043039;28;20661;-79
2022/12/26 04:55:13;;;;;;;36.10;9.73;;;6.80;99.90;;;;;;5046304;28;20277;-78
2022/12/26 04:57:39;;;;;;;75.40;11.97;;;6.80;99.90;;;;;;5046662;28;20231;-79
2022/12/26 05:00:09;;;;;;;46.10;11.40;;;6.90;99.90;;;;;;5037841;28;20220;-78
2022/12/26 05:10:52;;;;;;;32.00;10.53;;;6.90;99.90;;;;;;5021905;28;20230;-78
2022/12/26 05:13:19;;;;;;;36.40;11.10;;;6.90;99.90;;;;;;5048743;28;20240;-78
2022/12/26 05:29:39;;;;;;;19.90;8.87;;;7.00;99.90;;;;;;5037495;28;20227;-79
2022/12/26 05:32:08;;;;;;;22.13;9.47;;;7.00;99.90;;;;;;5048148;28;20231;-79
2022/12/26 05:34:34;;;;;;;15.00;9.30;;;7.00;99.90;;;;;;5044164;28;20229;-77
2022/12/26 05:37:00;;;;;;;18.97;10.37;;;7.00;99.90;;;;;;5049750;28;20847;-79
2022/12/26 05:39:27;;;;;;;21.27;10.13;;;7.10;99.90;;;;;;5049489;28;20947;-79
2022/12/26 05:41:54;;;;;;;14.90;9.80;;;7.10;99.90;;;;;;5050173;28;20238;-79
2022/12/26 05:44:21;;;;;;;18.03;10.63;;;7.10;99.90;;;;;;5048063;28;20233;-79
2022/12/26 05:46:48;;;;;;;20.27;10.27;;;7.10;99.90;;;;;;5049034;28;20231;-79
2022/12/26 05:49:16;;;;;;;20.60;10.30;;;7.10;99.90;;;;;;5048643;28;20220;-78
2022/12/26 05:51:43;;;;;;;16.50;10.30;;;7.10;99.90;;;;;;5048006;28;20315;-79
2022/12/26 05:54:10;;;;;;;17.67;10.10;;;7.10;99.90;;;;;;5046873;28;20269;-79
2022/12/26 05:56:36;;;;;;;18.40;10.20;;;7.10;99.90;;;;;;5046652;28;20254;-79
2022/12/26 05:59:03;;;;;;;15.80;9.93;;;7.10;99.90;;;;;;5047307;28;20231;-79
2022/12/26 06:01:30;;;;;;;17.90;10.33;;;7.10;99.90;;;;;;5047309;28;20221;-78
2022/12/26 06:03:59;;;;;;;17.00;11.00;;;7.10;99.90;;;;;;5043599;28;20690;-78
2022/12/26 06:06:28;;;;;;;18.93;10.77;;;7.10;99.90;;;;;;5030129;28;20222;-78
2022/12/26 06:08:57;;;;;;;17.30;10.00;;;7.20;99.90;;;;;;5040346;28;20228;-77
2022/12/26 06:11:25;;;;;;;18.43;11.13;;;7.20;99.90;;;;;;5028180;28;20471;-81
2022/12/26 06:13:52;;;;;;;18.00;11.40;;;7.20;99.90;;;;;;5045932;28;20224;-80
2022/12/26 06:16:19;;;;;;;16.60;9.93;;;7.20;99.90;;;;;;5045987;28;20256;-82
2022/12/26 06:18:47;;;;;;;18.63;10.60;;;7.20;99.90;;;;;;5045275;28;20252;-82
2022/12/26 06:21:16;;;;;;;20.00;10.83;;;7.20;99.90;;;;;;5045625;28;20230;-81
2022/12/26 06:23:45;;;;;;;18.60;11.00;;;7.20;99.90;;;;;;5040745;28;20221;-82
2022/12/26 06:26:12;;;;;;;21.30;12.23;;;7.20;99.90;;;;;;5039600;28;20212;-82
2022/12/26 06:28:39;;;;;;;23.50;12.77;;;7.20;99.90;;;;;;5047012;28;20226;-82
2022/12/26 06:31:08;;;;;;;25.23;12.73;;;7.20;99.90;;;;;;5041454;28;20226;-82
2022/12/26 06:33:35;;;;;;;21.60;12.27;;;7.20;99.90;;;;;;5040324;28;20234;-82
2022/12/26 06:36:04;;;;;;;21.60;12.33;;;7.20;99.90;;;;;;5043444;28;20224;-82
2022/12/26 06:38:30;;;;;;;24.13;14.17;;;7.30;99.90;;;;;;5040759;28;20231;-83
2022/12/26 06:40:58;;;;;;;22.43;12.30;;;7.30;99.90;;;;;;5042454;28;20724;-82
2022/12/26 06:43:25;;;;;;;20.20;12.07;;;7.30;99.90;;;;;;5041674;28;20236;-82
2022/12/26 06:45:55;;;;;;;20.63;12.60;;;7.30;99.90;;;;;;5036665;28;20243;-82
2022/12/26 06:48:22;;;;;;;20.40;12.27;;;7.30;99.90;;;;;;5040977;28;20426;-82
2022/12/26 06:50:49;;;;;;;24.80;13.37;;;7.30;99.90;;;;;;5043502;28;20279;-82
2022/12/26 06:53:16;;;;;;;17.40;11.57;;;7.30;99.90;;;;;;5042297;28;20338;-82
2022/12/26 06:55:43;;;;;;;17.77;11.70;;;7.30;99.90;;;;;;5037479;28;20253;-82
2022/12/26 06:58:11;;;;;;;19.07;12.00;;;7.30;99.90;;;;;;5068294;28;20729;-82
2022/12/26 07:00:38;;;;;;;30.43;12.33;;;7.30;99.90;;;;;;5044561;28;20216;-83
2022/12/26 07:03:05;;;;;;;17.90;11.10;;;7.30;99.90;;;;;;5034337;28;20238;-83
2022/12/26 07:05:31;;;;;;;17.80;11.30;;;7.30;99.90;;;;;;5042265;28;20941;-84
2022/12/26 07:07:58;;;;;;;17.57;11.57;;;7.30;99.90;;;;;;5038094;28;20223;-85
2022/12/26 07:10:25;;;;;;;16.47;11.17;;;7.30;99.90;;;;;;5066279;28;21377;-84
2022/12/26 07:12:55;;;;;;;17.43;11.30;;;7.30;99.90;;;;;;5073290;28;20232;-83
2022/12/26 07:15:23;;;;;;;13.83;10.60;;;7.30;99.90;;;;;;5030519;28;20261;-84
2022/12/26 07:17:49;;;;;;;16.80;10.57;;;7.40;99.90;;;;;;5046900;28;20219;-83
2022/12/26 07:20:16;;;;;;;17.37;10.90;;;7.40;99.90;;;;;;5042913;28;20227;-83
2022/12/26 07:22:43;;;;;;;14.93;10.40;;;7.40;99.90;;;;;;5041394;28;20323;-84
2022/12/26 07:25:09;;;;;;;15.17;10.00;;;7.40;99.90;;;;;;5032704;28;20315;-84
2022/12/26 07:27:37;;;;;;;13.87;10.00;;;7.40;99.90;;;;;;5038185;28;20764;-83
2022/12/26 07:30:05;;;;;;;14.80;10.73;;;7.40;99.90;;;;;;5056018;28;20602;-84
2022/12/26 07:32:34;;;;;;;13.90;10.07;;;7.40;99.90;;;;;;5041714;28;20229;-81
2022/12/26 07:35:01;;;;;;;15.17;10.27;;;7.40;99.90;;;;;;5042870;28;20224;-83
2022/12/26 07:37:27;;;;;;;14.67;10.03;;;7.40;99.90;;;;;;5042002;28;20703;-83
2022/12/26 07:39:54;;;;;;;13.73;10.30;;;7.40;99.90;;;;;;5044659;28;20745;-83
2022/12/26 07:42:23;;;;;;;15.00;10.27;;;7.40;99.90;;;;;;5044625;28;20582;-83
2022/12/26 07:44:50;;;;;;;13.33;10.10;;;7.40;99.90;;;;;;5047308;28;20223;-82
2022/12/26 07:47:16;;;;;;;14.50;10.47;;;7.50;99.90;;;;;;5035182;28;20226;-81
2022/12/26 07:49:44;;;;;;;17.27;10.03;;;7.50;99.90;;;;;;5043882;28;20224;-81
2022/12/26 07:52:11;;;;;;;13.20;10.53;;;7.40;99.90;;;;;;5038152;28;20216;-82
2022/12/26 07:54:38;;;;;;;31.07;11.83;;;7.50;99.90;;;;;;5042204;28;20568;-83
2022/12/26 07:57:04;;;;;;;18.40;10.90;;;7.50;99.90;;;;;;5051746;28;20380;-81
2022/12/26 07:59:31;;;;;;;24.23;11.63;;;7.50;99.90;;;;;;5040197;28;20224;-82
2022/12/26 08:01:58;;;;;;;31.90;13.60;;;7.50;99.90;;;;;;5032773;28;20315;-84
2022/12/26 08:04:25;;;;;;;20.40;13.10;;;7.50;99.90;;;;;;5033385;28;20239;-81
2022/12/26 08:06:53;;;;;;;23.87;13.03;;;7.50;99.90;;;;;;5040793;28;20254;-81
2022/12/26 08:09:19;;;;;;;37.77;14.03;;;7.60;99.90;;;;;;5038529;28;20318;-83
2022/12/26 08:11:46;;;;;;;16.70;12.70;;;7.60;99.90;;;;;;5039310;28;20216;-83
2022/12/26 08:14:15;;;;;;;22.27;14.43;;;7.60;99.90;;;;;;5039450;28;20235;-83
2022/12/26 08:16:42;;;;;;;44.53;15.40;;;7.60;99.90;;;;;;5043109;28;20227;-83
2022/12/26 08:19:09;;;;;;;20.43;14.47;;;7.60;99.90;;;;;;5075869;28;20236;-83
2022/12/26 08:21:35;;;;;;;19.90;14.27;;;7.50;99.90;;;;;;5045429;28;20298;-83
2022/12/26 08:24:03;;;;;;;19.87;14.43;;;7.50;99.90;;;;;;5043983;28;20242;-83
2022/12/26 08:26:30;;;;;;;19.13;14.63;;;7.50;99.90;;;;;;5037476;28;20743;-84
2022/12/26 08:28:57;;;;;;;21.93;16.23;;;7.60;99.90;;;;;;5042796;28;20232;-82
2022/12/26 08:31:24;;;;;;;22.57;15.87;;;7.50;99.90;;;;;;5039381;28;20234;-83
2022/12/26 08:33:54;;;;;;;25.67;15.77;;;7.60;99.90;;;;;;5038448;28;20692;-83
2022/12/26 08:36:21;;;;;;;26.50;16.37;;;7.60;99.90;;;;;;5039730;28;20229;-83
2022/12/26 08:38:48;;;;;;;23.23;16.53;;;7.60;99.90;;;;;;5043576;28;20225;-82
2022/12/26 08:41:17;;;;;;;24.47;17.50;;;7.70;99.90;;;;;;5044811;28;20226;-82
2022/12/26 08:43:44;;;;;;;22.77;16.83;;;7.70;99.90;;;;;;5040869;28;20244;-81
2022/12/26 08:46:11;;;;;;;21.73;16.03;;;7.70;99.90;;;;;;5041269;28;20234;-81
2022/12/26 08:48:39;;;;;;;21.90;16.37;;;7.70;99.90;;;;;;5045348;28;20552;-82
2022/12/26 08:51:08;;;;;;;23.03;16.07;;;7.70;99.90;;;;;;5045492;28;20242;-82
2022/12/26 08:53:36;;;;;;;22.37;16.40;;;7.70;99.90;;;;;;5039878;28;20239;-82
2022/12/26 08:56:04;;;;;;;24.50;17.87;;;7.80;99.90;;;;;;5039495;28;20227;-81
2022/12/26 08:58:33;;;;;;;23.60;17.03;;;7.70;99.90;;;;;;5040759;28;20244;-81
2022/12/26 09:01:06;;;;;;;25.77;17.93;;;7.70;99.90;;;;;;5074016;28;20226;-81
2022/12/26 09:03:33;;;;;;;23.50;17.57;;;7.80;99.90;;;;;;5056750;28;20763;-82
2022/12/26 09:06:00;;;;;;;24.23;17.20;;;7.80;99.90;;;;;;5042166;28;20223;-82
2022/12/26 09:08:28;;;;;;;21.23;16.23;;;7.80;99.90;;;;;;5035235;28;20234;-82
2022/12/26 09:10:55;;;;;;;20.73;15.73;;;7.80;99.90;;;;;;5043583;28;20215;-81
2022/12/26 09:13:22;;;;;;;24.20;16.90;;;7.80;99.90;;;;;;5046205;28;20673;-83
2022/12/26 09:15:50;;;;;;;21.57;16.50;;;7.80;99.90;;;;;;5041453;28;20227;-83
2022/12/26 09:18:17;;;;;;;23.33;17.30;;;7.80;99.90;;;;;;5039355;28;20242;-82
2022/12/26 09:20:43;;;;;;;23.43;17.10;;;7.80;99.90;;;;;;5039471;28;20227;-84
2022/12/26 09:23:10;;;;;;;24.20;17.83;;;7.80;99.90;;;;;;5041124;28;20224;-82
2022/12/26 09:25:37;;;;;;;23.97;17.03;;;7.80;99.90;;;;;;5036714;28;20233;-80
2022/12/26 09:28:04;;;;;;;22.10;15.80;;;7.80;99.90;;;;;;5040288;28;20262;-83
2022/12/26 09:30:30;;;;;;;23.43;16.97;;;7.90;99.90;;;;;;5039351;28;20986;-81
2022/12/26 09:32:58;;;;;;;23.03;16.67;;;7.90;99.90;;;;;;5033320;28;20322;-81
2022/12/26 09:35:25;;;;;;;21.63;15.90;;;7.90;99.90;;;;;;5040733;28;20329;-81
2022/12/26 09:37:52;;;;;;;22.10;16.40;;;8.00;99.90;;;;;;5042505;28;20842;-82
2022/12/26 09:40:26;;;;;;;23.20;16.10;;;8.00;99.90;;;;;;5047398;28;20217;-80
2022/12/26 09:43:10;;;;;;;22.17;15.03;;;8.00;99.90;;;;;;5041592;28;20233;-81
2022/12/26 09:45:51;;;;;;;19.93;15.50;;;8.00;99.90;;;;;;5059539;28;20244;-79
2022/12/26 09:48:26;;;;;;;21.50;15.93;;;8.00;99.90;;;;;;5044091;28;20233;-79
2022/12/26 09:50:53;;;;;;;20.57;14.67;;;8.00;99.90;;;;;;5044923;28;20897;-81
2022/12/26 09:53:29;;;;;;;22.07;16.30;;;8.10;99.90;;;;;;5043444;28;20227;-79
2022/12/26 09:55:59;;;;;;;19.73;15.10;;;8.00;99.90;;;;;;5042813;28;20227;-81
2022/12/26 09:58:28;;;;;;;19.73;15.13;;;8.10;99.90;;;;;;5043078;28;20228;-81
2022/12/26 10:01:01;;;;;;;21.50;14.80;;;8.10;99.90;;;;;;5045160;28;20232;-80
2022/12/26 10:03:30;;;;;;;18.80;13.73;;;8.10;99.90;;;;;;5044135;28;20230;-82
2022/12/26 10:06:16;;;;;;;20.50;14.50;;;8.10;99.90;;;;;;5051726;28;20290;-81
2022/12/26 10:08:57;;;;;;;18.47;13.87;;;8.10;99.90;;;;;;5050561;28;20763;-81
2022/12/26 10:11:34;;;;;;;19.40;13.63;;;8.10;99.90;;;;;;5050765;28;20232;-81
2022/12/26 10:14:12;;;;;;;20.43;14.90;;;8.10;99.90;;;;;;5054102;28;20232;-81
2022/12/26 10:16:49;;;;;;;22.77;14.37;;;8.10;99.90;;;;;;5051800;28;20229;-82
2022/12/26 10:19:29;;;;;;;16.97;12.77;;;8.20;99.90;;;;;;5053032;28;20231;-81
2022/12/26 10:22:10;;;;;;;17.77;13.03;;;8.20;99.90;;;;;;5053374;28;20257;-81
2022/12/26 10:24:40;;;;;;;16.40;12.33;;;8.20;99.90;;;;;;5050370;28;20240;-81
2022/12/26 10:27:14;;;;;;;17.87;12.53;;;8.20;99.90;;;;;;5049217;28;20312;-81
2022/12/26 10:29:45;;;;;;;17.97;12.93;;;8.20;99.90;;;;;;5052562;28;20252;-81
2022/12/26 10:32:18;;;;;;;18.83;12.50;;;8.20;99.90;;;;;;5058971;28;20231;-81
2022/12/26 10:34:48;;;;;;;17.43;12.33;;;8.20;99.90;;;;;;5071009;28;20504;-82
2022/12/26 10:37:21;;;;;;;19.03;12.93;;;8.20;99.90;;;;;;5066291;28;20232;-81
2022/12/26 10:39:51;;;;;;;16.13;12.27;;;8.30;99.90;;;;;;5051413;28;20835;-81
2022/12/26 10:42:23;;;;;;;15.20;11.47;;;8.30;99.90;;;;;;5051299;28;20234;-81
2022/12/26 10:44:50;;;;;;;17.20;12.57;;;8.30;99.90;;;;;;5049813;28;20231;-82
2022/12/26 10:47:24;;;;;;;15.77;11.23;;;8.30;99.90;;;;;;5051461;28;20233;-82
2022/12/26 10:49:53;;;;;;;18.60;11.60;;;8.30;99.90;;;;;;5051923;28;20252;-81
2022/12/26 10:52:26;;;;;;;17.27;12.50;;;8.30;99.90;;;;;;5051245;28;20233;-81
2022/12/26 10:54:55;;;;;;;17.03;11.37;;;8.30;99.90;;;;;;5047841;28;20267;-81
2022/12/26 10:57:23;;;;;;;18.57;12.13;;;8.30;99.90;;;;;;5035032;28;20313;-81
2022/12/26 10:59:53;;;;;;;18.30;11.90;;;8.30;99.90;;;;;;5049299;28;20245;-81
2022/12/26 11:02:25;;;;;;;16.23;12.10;;;8.40;99.90;;;;;;5048515;28;20237;-81
2022/12/26 11:05:06;;;;;;;16.67;11.33;;;8.40;99.90;;;;;;5048653;28;20221;-81
2022/12/26 11:07:36;;;;;;;15.53;10.83;;;8.40;99.90;;;;;;5051271;28;20587;-82
2022/12/26 11:10:04;;;;;;;15.90;11.27;;;8.40;99.90;;;;;;5050732;28;20245;-81
2022/12/26 11:12:39;;;;;;;15.17;11.17;;;8.40;99.90;;;;;;5048680;28;20220;-82
2022/12/26 11:15:19;;;;;;;14.27;10.50;;;8.50;99.90;;;;;;5043559;28;20697;-81
2022/12/26 11:17:49;;;;;;;14.77;10.90;;;8.50;99.90;;;;;;5050913;28;20244;-81
2022/12/26 11:20:27;;;;;;;15.90;10.73;;;8.50;99.90;;;;;;5048044;28;20237;-81
2022/12/26 11:22:55;;;;;;;15.87;10.73;;;8.50;99.90;;;;;;5050175;28;20319;-82
2022/12/26 11:25:24;;;;;;;15.90;10.20;;;8.50;99.90;;;;;;5048017;28;20220;-81
2022/12/26 11:27:53;;;;;;;16.37;10.90;;;8.50;99.90;;;;;;5049954;28;20295;-81
2022/12/26 11:30:29;;;;;;;14.17;10.43;;;8.50;99.90;;;;;;5046351;28;20262;-81
2022/12/26 11:33:06;;;;;;;16.27;11.50;;;8.60;99.90;;;;;;5058474;28;20323;-81
2022/12/26 11:35:36;;;;;;;14.47;10.07;;;8.60;99.90;;;;;;5043863;28;20264;-82
2022/12/26 11:38:06;;;;;;;14.67;10.00;;;8.60;99.90;;;;;;5046767;28;20306;-81
2022/12/26 11:40:36;;;;;;;14.73;10.17;;;8.60;99.90;;;;;;5046929;28;20246;-82
2022/12/26 11:43:05;;;;;;;18.23;10.67;;;8.60;99.90;;;;;;5052948;28;20234;-82
2022/12/26 11:45:42;;;;;;;19.10;10.87;;;8.50;99.90;;;;;;5057867;28;20220;-81
2022/12/26 11:48:21;;;;;;;16.43;10.87;;;8.50;99.90;;;;;;5037544;28;20719;-82
2022/12/26 11:50:50;;;;;;;14.43;9.20;;;8.50;99.90;;;;;;5047922;28;20856;-82
2022/12/26 11:53:18;;;;;;;14.90;10.67;;;8.50;99.90;;;;;;5045993;28;20249;-81
2022/12/26 11:55:56;;;;;;;15.57;9.93;;;8.60;99.90;;;;;;5049657;28;20232;-81
2022/12/26 11:58:24;;;;;;;14.83;9.87;;;8.50;99.90;;;;;;5049961;28;20601;-82
2022/12/26 12:01:11;;;;;;;14.23;9.97;;;8.50;99.90;;;;;;5052612;28;20236;-81
2022/12/26 12:03:41;;;;;;;14.50;9.70;;;8.50;99.90;;;;;;5048874;28;20735;-81
2022/12/26 12:06:26;;;;;;;14.87;9.57;;;8.50;99.90;;;;;;5045307;28;20229;-82
2022/12/26 12:09:02;;;;;;;14.03;8.83;;;8.50;99.90;;;;;;5060963;28;20242;-82
2022/12/26 12:11:39;;;;;;;17.47;9.40;;;8.50;99.90;;;;;;5049412;28;20313;-81
2022/12/26 12:14:19;;;;;;;12.70;8.40;;;8.50;99.90;;;;;;5038843;28;20237;-81
2022/12/26 12:16:56;;;;;;;12.83;8.87;;;8.60;99.90;;;;;;5045815;28;20606;-81
2022/12/26 12:19:38;;;;;;;12.40;8.13;;;8.50;99.90;;;;;;5050607;28;20285;-81
2022/12/26 12:22:21;;;;;;;11.67;8.07;;;8.60;99.90;;;;;;5051078;28;20220;-81
2022/12/26 12:25:04;;;;;;;12.37;8.07;;;8.60;99.90;;;;;;5050934;28;20229;-81
2022/12/26 12:27:35;;;;;;;12.73;8.70;;;8.60;99.90;;;;;;5047790;28;20227;-81
2022/12/26 12:30:14;;;;;;;13.50;8.83;;;8.60;99.90;;;;;;5046208;28;20241;-81
2022/12/26 12:32:52;;;;;;;13.43;9.07;;;8.50;99.90;;;;;;5051007;28;20300;-81
2022/12/26 12:35:39;;;;;;;9.97;7.60;;;8.50;99.90;;;;;;5049418;28;20242;-81
2022/12/26 12:38:28;;;;;;;12.63;8.77;;;8.50;99.90;;;;;;5030183;28;20233;-81
2022/12/26 12:41:22;;;;;;;12.43;8.57;;;8.50;99.90;;;;;;5051893;28;20235;-81
2022/12/26 12:43:56;;;;;;;12.43;8.57;;;8.40;99.90;;;;;;5050521;28;20228;-81
2022/12/26 12:46:31;;;;;;;11.40;8.43;;;8.40;99.90;;;;;;5046782;28;20223;-78
2022/12/26 12:49:19;;;;;;;11.30;8.00;;;8.40;99.90;;;;;;5034864;28;20228;-78
2022/12/26 12:51:53;;;;;;;11.47;7.70;;;8.30;99.90;;;;;;5036286;28;20225;-79
2022/12/26 12:54:41;;;;;;;12.03;7.33;;;8.40;99.90;;;;;;5054963;28;20253;-79
2022/12/26 12:57:15;;;;;;;9.13;7.03;;;8.40;99.90;;;;;;5052973;28;20229;-80
2022/12/26 12:59:53;;;;;;;10.50;7.57;;;8.40;99.90;;;;;;5053353;28;20222;-78
2022/12/26 13:02:25;;;;;;;11.53;7.37;;;8.40;99.90;;;;;;5051060;28;20240;-78
2022/12/26 13:04:59;;;;;;;9.10;7.23;;;8.40;99.90;;;;;;5052447;28;20222;-79
2022/12/26 13:07:32;;;;;;;14.20;7.17;;;8.40;99.90;;;;;;5052064;28;20221;-79
2022/12/26 13:10:06;;;;;;;9.47;7.03;;;8.40;99.90;;;;;;5051971;28;20224;-79
2022/12/26 13:12:38;;;;;;;9.40;6.03;;;8.50;99.90;;;;;;5047752;28;20217;-79
2022/12/26 13:15:08;;;;;;;9.93;6.60;;;8.40;99.90;;;;;;5049659;28;20251;-78
2022/12/26 13:17:49;;;;;;;8.80;6.20;;;8.50;99.90;;;;;;5052914;28;20227;-79
2022/12/26 13:20:21;;;;;;;9.30;6.60;;;8.40;99.90;;;;;;5041286;28;20233;-79
2022/12/26 13:25:43;;;;;;;5.90;5.30;;;8.40;99.90;;;;;;5045990;28;20227;-79
2022/12/26 13:28:15;;;;;;;7.40;5.00;;;8.40;99.90;;;;;;5045193;28;20307;-78
2022/12/26 13:30:42;;;;;;;8.43;5.40;;;8.50;99.90;;;;;;5045083;28;20218;-78
2022/12/26 13:33:13;;;;;;;7.33;4.97;;;8.50;99.90;;;;;;5045565;28;20225;-78
2022/12/26 13:35:53;;;;;;;5.73;3.90;;;8.50;99.90;;;;;;5049265;28;20227;-78
2022/12/26 13:38:20;;;;;;;6.33;4.30;;;8.50;99.90;;;;;;5046603;28;20210;-78
2022/12/26 13:40:52;;;;;;;5.67;3.93;;;8.50;99.90;;;;;;5046323;28;20239;-78
2022/12/26 13:46:27;;;;;;;3.43;2.73;;;8.50;99.90;;;;;;5055871;28;20453;-77
2022/12/26 13:48:57;;;;;;;4.40;1.77;;;8.60;99.90;;;;;;5055219;28;20233;-77
2022/12/26 13:51:51;;;;;;;4.27;1.70;;;8.50;99.90;;;;;;5051989;28;20231;-78
2022/12/26 13:54:19;;;;;;;3.07;1.10;;;8.50;99.90;;;;;;5060709;28;20251;-78
2022/12/26 13:57:03;;;;;;;2.47;1.30;;;8.50;99.90;;;;;;5050015;28;20302;-78
2022/12/26 13:59:35;;;;;;;2.53;0.87;;;8.40;99.90;;;;;;5047628;28;20222;-79
2022/12/26 14:02:19;;;;;;;3.03;1.13;;;8.30;99.90;;;;;;5047725;28;20295;-78
2022/12/26 14:05:00;;;;;;;2.77;0.97;;;8.30;99.90;;;;;;5046674;28;20223;-79
2022/12/26 14:07:34;;;;;;;1.63;0.90;;;8.20;99.90;;;;;;5048601;28;20249;-79
2022/12/26 14:10:09;;;;;;;2.50;0.90;;;8.10;99.90;;;;;;5048770;28;20235;-78
2022/12/26 14:12:54;;;;;;;1.47;0.90;;;8.10;99.90;;;;;;5052638;28;20691;-78
2022/12/26 14:15:35;;;;;;;1.60;0.80;;;8.00;99.90;;;;;;5042784;28;20237;-78
2022/12/26 14:18:16;;;;;;;3.67;0.90;;;7.90;99.90;;;;;;5042955;28;20719;-78
2022/12/26 14:20:49;;;;;;;4.50;1.10;;;7.80;99.90;;;;;;5047573;28;20226;-79
2022/12/26 14:23:28;;;;;;;5.80;1.20;;;7.70;99.90;;;;;;5052119;28;20297;-79
2022/12/26 14:26:02;;;;;;;5.37;1.17;;;7.60;99.90;;;;;;5048609;28;20314;-78
2022/12/26 14:28:43;;;;;;;3.47;0.80;;;7.50;99.90;;;;;;5048868;28;20324;-78
2022/12/26 14:31:18;;;;;;;4.53;1.07;;;7.50;99.90;;;;;;5051987;28;20282;-78
2022/12/26 14:33:51;;;;;;;2.70;0.93;;;7.40;99.90;;;;;;5045274;28;20271;-79
2022/12/26 14:36:33;;;;;;;5.00;1.10;;;7.30;99.90;;;;;;5046181;28;20228;-79
2022/12/26 14:39:11;;;;;;;2.33;1.03;;;7.30;99.90;;;;;;5041819;28;20300;-79
2022/12/26 14:45:01;;;;;;;7.17;1.40;;;7.10;99.90;;;;;;5038996;28;20663;-79
2022/12/26 14:47:38;;;;;;;5.10;1.10;;;7.10;99.90;;;;;;5039962;28;20226;-79
2022/12/26 14:50:36;;;;;;;6.50;1.60;;;6.90;99.90;;;;;;5056265;28;20217;-79
2022/12/26 14:55:58;;;;;;;6.03;2.13;;;6.90;99.90;;;;;;5032140;27;21019;-80
2022/12/26 14:58:36;;;;;;;6.47;1.80;;;6.70;99.90;;;;;;4996184;28;20592;-81
2022/12/26 15:01:40;;;;;;;6.80;1.73;;;6.70;99.90;;;;;;4996672;28;20608;-80
2022/12/26 15:04:17;;;;;;;7.37;1.47;;;6.60;99.90;;;;;;5001202;28;20226;-80
2022/12/26 15:07:21;;;;;;;7.07;1.43;;;6.60;99.90;;;;;;5015222;28;20233;-80
2022/12/26 15:10:24;;;;;;;5.83;1.57;;;6.50;99.90;;;;;;5018810;28;20250;-80
2022/12/26 15:13:34;;;;;;;7.57;1.50;;;6.50;99.90;;;;;;5008517;28;20236;-80
2022/12/26 15:16:19;;;;;;;7.70;1.80;;;6.40;99.90;;;;;;5009336;28;20323;-80
2022/12/26 15:19:11;;;;;;;9.37;1.83;;;6.30;99.90;;;;;;5004538;28;20231;-79
2022/12/26 15:22:08;;;;;;;7.10;1.63;;;6.30;99.90;;;;;;4998381;28;20331;-80